鹿児島空港の過去48時間の天気

鹿児島空港 (Kagoshima)

現在時刻: 1/23 13:16 JST (1/23 04:16 UTC) 以下の時間は現地時間です。

過去48時間のMETAR気象情報
時間 風向 風速(m/s) 視程 気温(℃) 湿度(%) 気圧(hPa) 天気現象
23 13:00 北北西 9 10km以上 8 53 1016
23 12:00 北北西 8 10km以上 8 57 1016
23 11:12 北西 9 10km以上 8 57 1017
23 11:00 北北西 9 10km以上 8 57 1017
23 10:29 北北西 8 10km以上 9 66 1017
23 10:00 北北西 9 10km以上 8 66 1017
23 09:41 北北西 8 10km以上 8 66 1017
23 09:00 北北西 5 10km以上 7 81 1016
23 08:00 4 10km以上 2 100 1016
23 07:00 3 10km以上 2 93 1016
23 06:00 西北西 2 10km以上 1 100 1015
22 21:00 北西 4 10km以上 4 81 1014
22 20:00 北西 5 10km以上 4 81 1014
22 19:00 北西 6 10km以上 4 87 1014
22 18:00 北北西 5 10km以上 5 87 1012
22 17:00 北西 9 10km以上 6 81 1011
22 16:00 北北西 8 10km以上 7 81 1011
22 15:00 北西 9 10km以上 9 76 1009
22 14:36 北北西 8 10km以上 9 76 1009
22 14:00 西 3 10km以上 9 93 1009
22 13:38 西 5 10km以上 9 87 1009
22 13:00 北東 2 10km以上 8 93 1008
22 12:00 5 10km以上 6 93 1009
22 11:00 北北西 7 9,000m 6 93 1010 弱いしゅう雨
22 10:00 4 8,000m 7 93 1011 弱いしゅう雨
22 09:00 5 6,000m 6 100 1010 弱いしゅう雨
22 08:32 北北西 5 6,000m 6 100 1010 しゅう雨
22 08:00 北北西 4 6,000m 6 100 1010 弱い雨
22 07:49 北北東 3 5,000m 6 100 1010 弱い雨 もや
22 07:34 3 4,000m 6 100 1010 雨 もや
22 07:16 5 4,000m 6 100 1010 弱い雨 もや
22 07:00 北北西 5 4,000m 6 100 1010 雨 もや
22 06:00 北北西 2 4,000m 5 100 1010 雨 もや
RJFK 230400Z 33017KT 9999 FEW020 BKN040 08/M01 Q1016
RJFK 230300Z 33016G27KT 9999 FEW020 SCT035 08/M00 Q1016 RMK 1CU020 3CU035 A3002
RJFK 230212Z 31017G28KT 9999 FEW015 SCT030 08/M00 Q1017 RMK 1CU015 3CU030 A3004
RJFK 230200Z 33018KT 9999 FEW015 SCT030 08/00 Q1017 WS R34 RMK 1CU015 3CU030 A3004
RJFK 230129Z 33016G26KT 9999 FEW015 SCT020 09/03 Q1017 RMK 1CU015 3CU020 A3005
RJFK 230100Z 33018KT 9999 FEW015 08/02 Q1017 RMK 1CU015 A3004
RJFK 230041Z 33015G26KT 9999 FEW015 08/02 Q1017 RMK 1CU015 A3003
RJFK 230000Z 33010KT 9999 FEW010 07/04 Q1016 RMK 1CU010 A3001
RJFK 222300Z 35007KT CAVOK 02/02 Q1016 RMK A3001
RJFK 222200Z 36006KT 9999 FEW002 02/01 Q1016 RMK 1ST002 A3001
RJFK 222100Z 29003KT 250V010 9999 FEW045 01/01 Q1015 RMK 1CU045 A2998
RJFK 221200Z 31007KT 9999 FEW010 04/01 Q1014 RMK 1CU010 A2997
RJFK 221100Z 31010KT 9999 FEW010 04/01 Q1014 RMK 1CU010 A2996
RJFK 221000Z 32011KT 9999 FEW010 04/02 Q1014 RMK 1CU010 A2994
RJFK 220900Z 33010KT 9999 FEW010 05/03 Q1012 RMK 1CU010 A2990
RJFK 220800Z 32018KT 9999 FEW010 06/03 Q1011 RMK 1CU010 A2988
RJFK 220700Z 33015KT 9999 FEW010 SCT015 07/04 Q1011 RMK 1CU010 3CU015 A2986
RJFK 220600Z 32018KT 9999 FEW010 SCT020 09/05 Q1009 RMK 1CU010 3CU020 A2982
RJFK 220536Z 33015KT 9999 FEW005 SCT015 BKN035 09/05 Q1009 RMK 1ST005 3CU015 6CU035 A2981
RJFK 220500Z 28005KT 250V310 9999 FEW005 SCT008 BKN040 09/08 Q1009 RMK 1ST005 3ST008 5CU040 A2980
RJFK 220438Z 28010KT 9999 FEW003 SCT008 BKN015 09/07 Q1009 RMK 1ST003 3ST008 6CU015 A2980
RJFK 220400Z 04004KT 360V080 9999 FEW002 SCT060 08/07 Q1008 RMK 1ST002 3SC060 A2977
RJFK 220300Z 35009KT 9999 FEW003 SCT015 BKN025 06/05 Q1009 RMK 1ST003 3CU015 7CU025 A2981
RJFK 220200Z 33013KT 9000 -SHRA FEW001 SCT010 BKN020 06/05 Q1010 WS R34
RJFK 220100Z 35007KT 310V020 8000 -SHRA FEW001 SCT010 BKN020 07/06 Q1011 RMK 1ST001 3ST010 6CU020 A2986
RJFK 220000Z 36009KT 6000 -SHRA FEW001 SCT015 BKN025 06/06 Q1010 RMK 1ST001 4CU015 6CU025 A2983
RJFK 212332Z 34009KT 6000 SHRA FEW001 SCT015 BKN025 06/06 Q1010 RMK 1ST001 4CU015 6CU025 A2984
RJFK 212300Z 33008KT 6000 -RA FEW001 SCT005 BKN025 06/06 Q1010 RMK 1ST001 3ST005 5CU025 A2984
RJFK 212249Z 02006KT 350V060 5000 -RA BR FEW001 SCT025 BKN030 06/06 Q1010 RMK 1ST001 3CU025 5CU030 A2983
RJFK 212234Z 01005KT 4000 RA BR FEW001 BKN030 OVC080 06/06 Q1010 RMK 1ST001 6SC030 8AS080 A2983
RJFK 212216Z 35009KT 4000 -RA BR FEW001 BKN030 OVC080 06/06 Q1010 RMK 1ST001 7SC030 8AS080 A2984
RJFK 212200Z 34009KT 4000 RA BR FEW001 BKN030 OVC080 06/06 Q1010 RMK 1ST001 7SC030 8AS080 A2985
RJFK 212100Z 33003KT 4000 RA BR FEW001 BKN035 OVC080 05/05 Q1010 RMK 1ST001 7SC035 8AS080 A2984